Nathalie — OJLP — position and weather

sailwx.info

Track history (hours):
 
Tides and Currents Weather Stations Pressure Air Temp Water Temp Dewpoint Dewpoint Depression Visibility Wind Speed Wind Dir Waves Ship Positions

Nathalie

Last reported at 2017-Aug-24 02:25 UTC. Time now 2017-Aug-24 02:53 UTC.
Position N 53°38' W 000°12'.

Length 64 m; draft 2.2 m.

Type: Cargo ship. MMSI: 230987660.

Date/timePositionNaut miles runAvg speedWind from/ knotsBaromVisibWave heightAir tempDewpointWater temp
2017-Aug-24 02:25N 53°38' W 000°12'0 0.0
2017-Aug-24 01:58N 53°38' W 000°12'0 0.0
2017-Aug-24 01:28N 53°38' W 000°12'0 0.0
2017-Aug-24 00:52N 53°38' W 000°12'0 0.0
2017-Aug-24 00:28N 53°38' W 000°12'0 0.0
2017-Aug-23 23:46N 53°38' W 000°12'0 0.0
2017-Aug-23 23:22N 53°38' W 000°12'0 0.0
2017-Aug-23 22:58N 53°38' W 000°12'0 0.0
2017-Aug-23 22:25N 53°38' W 000°12'0 0.0
2017-Aug-23 21:55N 53°38' W 000°12'0 0.0
2017-Aug-23 21:28N 53°38' W 000°12'0 0.7
2017-Aug-23 21:01N 53°38' W 000°11'0 0.7
2017-Aug-23 20:31N 53°38' W 000°11'1 1.7
2017-Aug-23 20:00N 53°38' W 000°09'4 8.8
2017-Aug-23 19:30N 53°36' W 000°02'510.0
2017-Aug-23 18:59N 53°34' E 000°06'49 7.6
2017-Aug-23 12:34N 53°02' E 001°08'110.8
2017-Aug-23 12:31N 53°02' E 001°09'510.4
2017-Aug-23 12:00N 52°60' E 001°16'510.1
2017-Aug-23 11:30N 52°58' E 001°24'5 9.7
2017-Aug-23 11:00N 52°55' E 001°31'4 8.9
2017-Aug-23 10:30N 52°53' E 001°37'4 8.0
2017-Aug-23 10:00N 52°50' E 001°42'4 7.1
2017-Aug-23 09:30N 52°48' E 001°47'3 6.6
2017-Aug-23 09:00N 52°46' E 001°51'30 7.8
2017-Aug-23 05:10N 52°25' E 002°26'2 9.9
2017-Aug-23 05:00N 52°24' E 002°27'5 9.9
2017-Aug-23 04:30N 52°20' E 002°33'610.0
2017-Aug-23 03:53N 52°16' E 002°40'27 9.8
2017-Aug-23 01:09N 51°54' E 003°05'3 9.4
2017-Aug-23 00:50N 51°51' E 003°08'3 9.1
2017-Aug-23 00:29N 51°49' E 003°11'4 8.9
2017-Aug-23 00:00N 51°45' E 003°13'4 8.6
2017-Aug-22 23:31N 51°42' E 003°18'4 7.8
2017-Aug-22 23:00N 51°38' E 003°21'4 8.4
2017-Aug-22 22:29N 51°34' E 003°24'4 7.7
2017-Aug-22 22:01N 51°31' E 003°26'4 7.3
2017-Aug-22 21:30N 51°28' E 003°31'3 7.0
2017-Aug-22 21:01N 51°26' E 003°35'5 9.3
2017-Aug-22 20:30N 51°25' E 003°42'510.3
2017-Aug-22 20:00N 51°21' E 003°47'510.7
2017-Aug-22 19:30N 51°23' E 003°56'5 9.5
2017-Aug-22 19:00N 51°26' E 004°01'510.1
2017-Aug-22 18:31N 51°22' E 004°07'4 7.9
2017-Aug-22 17:59N 51°22' E 004°13'5 9.5
2017-Aug-22 17:30N 51°18' E 004°17'2 4.6
2017-Aug-22 17:00N 51°17' E 004°20'0 0.3
2017-Aug-22 16:28N 51°17' E 004°20'2 3.3
2017-Aug-22 15:59N 51°16' E 004°22'0 0.0
2017-Aug-22 15:29N 51°16' E 004°22'0 0.0
2017-Aug-22 14:59N 51°16' E 004°22'0 0.0
2017-Aug-22 14:29N 51°16' E 004°22'0 0.0
2017-Aug-22 13:59N 51°16' E 004°22'0 0.0
2017-Aug-22 13:29N 51°16' E 004°22'0 0.0
2017-Aug-22 12:59N 51°16' E 004°22'0 0.0
2017-Aug-22 12:29N 51°16' E 004°22'0 0.0
2017-Aug-22 11:59N 51°16' E 004°22'0 0.0
2017-Aug-22 11:29N 51°16' E 004°22'0 0.0
2017-Aug-22 10:59N 51°16' E 004°22'0 0.0
2017-Aug-22 10:29N 51°16' E 004°22'0 0.0
2017-Aug-22 09:59N 51°16' E 004°22'0 0.0
2017-Aug-22 09:29N 51°16' E 004°22'0 0.0
2017-Aug-22 08:59N 51°16' E 004°22'0 0.0
2017-Aug-22 08:29N 51°16' E 004°22'0 0.0
2017-Aug-22 07:59N 51°16' E 004°22'0 0.0
2017-Aug-22 07:29N 51°16' E 004°22'0 0.0
2017-Aug-22 06:59N 51°16' E 004°22'0 0.0
2017-Aug-22 06:29N 51°16' E 004°22'0 0.0
2017-Aug-22 05:59N 51°16' E 004°22'0 0.0
2017-Aug-22 05:29N 51°16' E 004°22'0 0.0
2017-Aug-22 04:59N 51°16' E 004°22'0 0.0
2017-Aug-22 04:29N 51°16' E 004°22'0 0.0
2017-Aug-22 03:59N 51°16' E 004°22'0 0.0
2017-Aug-22 03:29N 51°16' E 004°22'0 0.0
2017-Aug-22 02:59N 51°16' E 004°22'0 0.0
2017-Aug-22 02:29N 51°16' E 004°22'0 0.0
2017-Aug-22 01:59N 51°16' E 004°22'0 0.0
2017-Aug-22 01:29N 51°16' E 004°22'0 0.0
2017-Aug-22 00:59N 51°16' E 004°22'0 0.0
2017-Aug-22 00:28N 51°16' E 004°22'0 0.0
2017-Aug-21 23:58N 51°16' E 004°22'0 0.0
2017-Aug-21 23:28N 51°16' E 004°22'0 0.0
2017-Aug-21 22:58N 51°16' E 004°22'0 0.0
2017-Aug-21 22:28N 51°16' E 004°22'0 0.0
2017-Aug-21 21:58N 51°16' E 004°22'0 0.0
2017-Aug-21 21:28N 51°16' E 004°22'0 0.0
2017-Aug-21 20:58N 51°16' E 004°22'0 0.0
2017-Aug-21 20:28N 51°16' E 004°22'0 0.0
2017-Aug-21 19:58N 51°16' E 004°22'0 0.0
2017-Aug-21 19:28N 51°16' E 004°22'0 0.0
2017-Aug-21 18:58N 51°16' E 004°22'0 0.8
2017-Aug-21 18:30N 51°16' E 004°22'2 3.1
2017-Aug-21 18:00N 51°17' E 004°20'0 0.7
2017-Aug-21 17:30N 51°17' E 004°20'3 5.7
2017-Aug-21 17:00N 51°19' E 004°16'3 6.4
2017-Aug-21 16:30N 51°22' E 004°13'3 5.3
2017-Aug-21 16:00N 51°23' E 004°10'4 7.1
2017-Aug-21 15:30N 51°22' E 004°05'3 6.9
2017-Aug-21 15:00N 51°25' E 004°02'3 5.3
2017-Aug-21 14:30N 51°24' E 003°58'4 8.6
2017-Aug-21 14:00N 51°21' E 003°53'4 8.7
2017-Aug-21 13:30N 51°21' E 003°46'4 8.8
2017-Aug-21 13:00N 51°25' E 003°42'5 9.1
2017-Aug-21 12:30N 51°26' E 003°35'510.1
2017-Aug-21 12:00N 51°29' E 003°29'5 9.1
2017-Aug-21 11:30N 51°33' E 003°25'6 9.8
2017-Aug-21 10:55N 51°38' E 003°20'237 7.0
2017-Aug-20 00:59N 53°58' E 008°37'510.8
2017-Aug-20 00:30N 53°54' E 008°42'5 9.5
2017-Aug-20 00:00N 53°51' E 008°49'4 8.7
2017-Aug-19 23:31N 53°51' E 008°56'4 7.6
2017-Aug-19 23:00N 53°52' E 009°02'4 7.5
2017-Aug-19 22:31N 53°53' E 009°08'1 2.0
2017-Aug-19 22:00N 53°54' E 009°09'4 7.1
2017-Aug-19 21:31N 53°56' E 009°13'4 8.3
2017-Aug-19 21:00N 53°60' E 009°17'4 8.1
2017-Aug-19 20:30N 54°04' E 009°19'50 6.0
2017-Aug-19 12:13N 54°33' E 010°28'2 8.6
2017-Aug-19 11:59N 54°33' E 010°31'4 8.5
2017-Aug-19 11:30N 54°34' E 010°38'4 8.6
2017-Aug-19 11:00N 54°35' E 010°45'4 8.5
2017-Aug-19 10:30N 54°35' E 010°53'4 8.2
2017-Aug-19 10:00N 54°36' E 010°60'4 8.3
2017-Aug-19 09:30N 54°36' E 011°07'4 8.2
2017-Aug-19 09:00N 54°36' E 011°14'4 7.9
2017-Aug-19 08:31N 54°34' E 011°20'4 8.2
2017-Aug-19 08:00N 54°32' E 011°26'4 8.0
2017-Aug-19 07:30N 54°31' E 011°33'4 7.7
2017-Aug-19 07:00N 54°30' E 011°39'4 7.4
2017-Aug-19 06:29N 54°30' E 011°46'4 7.4
2017-Aug-19 05:58N 54°30' E 011°52'4 7.4
2017-Aug-19 05:27N 54°30' E 011°59'3 7.0
2017-Aug-19 05:00N 54°30' E 012°04'4 7.1
2017-Aug-19 04:30N 54°32' E 012°09'4 7.9
2017-Aug-19 04:00N 54°36' E 012°13'4 8.2
2017-Aug-19 03:30N 54°38' E 012°18'4 8.4
2017-Aug-19 03:00N 54°41' E 012°24'42 8.6
2017-Aug-18 22:05N 54°59' E 013°30'1 9.0
2017-Aug-18 21:58N 54°59' E 013°32'4 8.7
2017-Aug-18 21:29N 54°60' E 013°39'4 9.0
2017-Aug-18 21:00N 55°01' E 013°46'5 9.2
2017-Aug-18 20:30N 55°03' E 013°54'5 9.1
2017-Aug-18 20:00N 55°04' E 014°01'4 8.8
2017-Aug-18 19:30N 55°07' E 014°07'5 9.0
2017-Aug-18 19:00N 55°11' E 014°12'5 9.1
2017-Aug-18 18:30N 55°14' E 014°17'5 9.0
2017-Aug-18 18:00N 55°18' E 014°22'5 9.0
2017-Aug-18 17:30N 55°21' E 014°27'5 9.1
2017-Aug-18 16:58N 55°25' E 014°32'4 9.2
2017-Aug-18 16:30N 55°28' E 014°38'4 9.0
2017-Aug-18 16:00N 55°30' E 014°45'4 8.8
2017-Aug-18 15:30N 55°33' E 014°51'4 8.9
2017-Aug-18 15:00N 55°36' E 014°57'4 9.0
2017-Aug-18 14:30N 55°38' E 015°04'9 8.9
2017-Aug-18 13:30N 55°43' E 015°16'4 8.6
2017-Aug-18 13:00N 55°46' E 015°23'4 8.5
2017-Aug-18 12:30N 55°48' E 015°29'4 8.5
2017-Aug-18 12:00N 55°51' E 015°35'4 8.6
2017-Aug-18 11:30N 55°54' E 015°41'4 8.5
2017-Aug-18 11:00N 55°56' E 015°47'4 8.6
2017-Aug-18 10:30N 55°60' E 015°51'4 8.8
2017-Aug-18 10:00N 56°03' E 015°55'4 8.9
2017-Aug-18 09:30N 56°07' E 016°00'4 8.8
2017-Aug-18 09:00N 56°11' E 016°04'4 8.8
2017-Aug-18 08:30N 56°15' E 016°07'5 9.0
2017-Aug-18 08:00N 56°19' E 016°10'5 9.0
2017-Aug-18 07:30N 56°23' E 016°13'5 9.1
2017-Aug-18 07:00N 56°28' E 016°16'5 8.9
2017-Aug-18 06:30N 56°32' E 016°18'5 9.0
2017-Aug-18 06:00N 56°36' E 016°21'33 8.7
2017-Aug-18 02:13N 57°07' E 016°44'3 8.7
2017-Aug-18 01:53N 57°09' E 016°46'3 8.8
2017-Aug-18 01:29N 57°13' E 016°48'19 9.0
2017-Aug-17 23:22N 57°31' E 016°58'4 9.0
2017-Aug-17 22:57N 57°34' E 017°00'7 8.9
2017-Aug-17 22:11N 57°41' E 017°04'2 8.8
2017-Aug-17 22:00N 57°42' E 017°05'4 8.9
2017-Aug-17 21:30N 57°47' E 017°08'4 9.0
2017-Aug-17 21:00N 57°51' E 017°11'5 9.0
2017-Aug-17 20:25N 57°56' E 017°15'4 9.5
2017-Aug-17 19:57N 57°60' E 017°19'4 8.6
2017-Aug-17 19:30N 58°03' E 017°21'5 9.7
2017-Aug-17 19:00N 58°08' E 017°25'4 8.7
2017-Aug-17 18:30N 58°12' E 017°28'5 9.9
2017-Aug-17 18:00N 58°16' E 017°32'4 8.3
2017-Aug-17 17:30N 58°20' E 017°35'5 9.1
2017-Aug-17 17:00N 58°24' E 017°38'5 9.2
2017-Aug-17 16:30N 58°28' E 017°42'5 9.1
2017-Aug-17 16:00N 58°33' E 017°45'4 8.9
2017-Aug-17 15:30N 58°37' E 017°48'4 8.9
2017-Aug-17 15:01N 58°41' E 017°51'5 9.1
2017-Aug-17 14:29N 58°45' E 017°55'31 8.6
2017-Aug-17 10:54N 59°09' E 018°32'3 7.5
2017-Aug-17 10:29N 59°12' E 018°35'8 9.3
2017-Aug-17 09:37N 59°18' E 018°45'110.2
2017-Aug-17 09:29N 59°19' E 018°47'4 9.0
2017-Aug-17 09:00N 59°23' E 018°52'5 9.2
2017-Aug-17 08:31N 59°26' E 018°58'5 9.2
2017-Aug-17 08:00N 59°30' E 019°04'5 9.1
2017-Aug-17 07:30N 59°34' E 019°08'4 8.9
2017-Aug-17 07:00N 59°38' E 019°09'4 9.0
2017-Aug-17 06:30N 59°43' E 019°10'3 6.9
2017-Aug-17 06:01N 59°46' E 019°06'4 8.7
2017-Aug-17 05:30N 59°50' E 019°05'4 9.0
2017-Aug-17 05:01N 59°54' E 019°04'5 9.3
2017-Aug-17 04:31N 59°59' E 019°03'5 9.3
2017-Aug-17 04:01N 60°04' E 019°02'5 9.2
2017-Aug-17 03:31N 60°08' E 019°00'5 9.2
2017-Aug-17 03:01N 60°13' E 018°60'5 9.2
2017-Aug-17 02:31N 60°17' E 018°60'5 9.1
2017-Aug-17 02:00N 60°22' E 018°59'5 9.2
2017-Aug-17 01:30N 60°26' E 018°59'5 9.1
2017-Aug-17 01:01N 60°31' E 018°59'5 9.0
2017-Aug-17 00:31N 60°35' E 019°02'5 9.1
2017-Aug-17 00:00N 60°40' E 019°03'4 9.0
2017-Aug-16 23:31N 60°44' E 019°06'4 9.0
2017-Aug-16 23:01N 60°49' E 019°08'4 8.9
2017-Aug-16 22:31N 60°53' E 019°10'5 8.9
2017-Aug-16 22:00N 60°57' E 019°12'4 8.9
2017-Aug-16 21:31N 61°02' E 019°14'57 8.5
2017-Aug-16 14:45N 61°57' E 019°43'2 8.1
2017-Aug-16 14:30N 61°59' E 019°44'4 8.6
2017-Aug-16 14:00N 62°03' E 019°46'4 7.7
2017-Aug-16 13:30N 62°07' E 019°48'4 7.4
2017-Aug-16 13:01N 62°11' E 019°50'4 7.6
2017-Aug-16 12:30N 62°14' E 019°52'4 7.8
2017-Aug-16 12:00N 62°18' E 019°54'4 7.5
2017-Aug-16 11:30N 62°22' E 019°57'4 7.5
2017-Aug-16 11:00N 62°25' E 019°58'4 7.2
2017-Aug-16 10:30N 62°29' E 020°00'4 6.8
2017-Aug-16 09:59N 62°32' E 020°02'3 6.9
2017-Aug-16 09:30N 62°36' E 020°03'4 7.7
2017-Aug-16 09:00N 62°39' E 020°06'3 7.0
2017-Aug-16 08:30N 62°43' E 020°08'4 7.1
2017-Aug-16 08:00N 62°46' E 020°10'4 8.1
2017-Aug-16 07:30N 62°50' E 020°13'4 7.3
2017-Aug-16 06:57N 62°54' E 020°15'3 7.4
2017-Aug-16 06:31N 62°57' E 020°16'4 7.4
2017-Aug-16 06:00N 63°01' E 020°18'4 8.4
2017-Aug-16 05:30N 63°05' E 020°20'3 6.8
2017-Aug-16 05:00N 63°08' E 020°22'4 7.6
2017-Aug-16 04:31N 63°12' E 020°24'4 8.0
2017-Aug-16 04:00N 63°16' E 020°25'4 7.9
2017-Aug-16 03:31N 63°20' E 020°27'4 8.1
2017-Aug-16 03:00N 63°23' E 020°31'4 8.7
2017-Aug-16 02:30N 63°27' E 020°37'4 8.3
2017-Aug-16 02:01N 63°31' E 020°41'4 7.9
2017-Aug-16 01:30N 63°33' E 020°48'4 7.8
2017-Aug-16 01:01N 63°34' E 020°56'5 9.4
2017-Aug-16 00:30N 63°36' E 021°06'4 7.9
2017-Aug-16 00:00N 63°37' E 021°14'4 8.7
2017-Aug-15 23:30N 63°39' E 021°23'4 8.8
2017-Aug-15 23:00N 63°41' E 021°32'5 9.4
2017-Aug-15 22:30N 63°43' E 021°41'4 8.1
2017-Aug-15 22:00N 63°45' E 021°49'510.5
2017-Aug-15 21:30N 63°47' E 022°00'4 8.2
2017-Aug-15 21:00N 63°49' E 022°08'4 8.1
2017-Aug-15 20:31N 63°51' E 022°16'4 8.7
2017-Aug-15 20:01N 63°53' E 022°25'4 8.6
2017-Aug-15 19:30N 63°55' E 022°34'4 8.5
2017-Aug-15 19:01N 63°57' E 022°43'4 7.1
2017-Aug-15 18:30N 63°57' E 022°51'4 8.7
2017-Aug-15 18:00N 63°55' E 022°58'3 6.7
2017-Aug-15 17:30N 63°52' E 023°02'0 0.0
2017-Aug-15 17:00N 63°52' E 023°02'0 0.0
2017-Aug-15 16:30N 63°52' E 023°02'0 0.0
2017-Aug-15 16:00N 63°52' E 023°02'0 0.0
2017-Aug-15 15:30N 63°52' E 023°02'0 0.0
2017-Aug-15 15:00N 63°52' E 023°02'0 0.0
2017-Aug-15 14:24N 63°52' E 023°02'0 0.0
2017-Aug-15 14:00N 63°52' E 023°02'0 0.0
2017-Aug-15 13:30N 63°52' E 023°02'0 0.0
2017-Aug-15 13:00N 63°52' E 023°02'0 0.0
2017-Aug-15 12:30N 63°52' E 023°02'0 0.0
2017-Aug-15 12:00N 63°52' E 023°02'0 0.0
2017-Aug-15 11:30N 63°52' E 023°02'0 0.0
2017-Aug-15 11:00N 63°52' E 023°02'3 5.7
2017-Aug-15 10:30N 63°54' E 022°59'5 9.0
2017-Aug-15 10:00N 63°57' E 022°51'4 8.3
2017-Aug-15 09:30N 63°58' E 022°42'5 9.7
2017-Aug-15 09:00N 63°56' E 022°32'5 9.6
2017-Aug-15 08:30N 63°54' E 022°22'5 9.3
2017-Aug-15 08:00N 63°51' E 022°13'5 9.3
2017-Aug-15 07:30N 63°49' E 022°04'5 9.3
2017-Aug-15 07:00N 63°47' E 021°55'5 9.3
2017-Aug-15 06:30N 63°44' E 021°46'5 9.4
2017-Aug-15 06:00N 63°42' E 021°37'5 9.4
2017-Aug-15 05:30N 63°40' E 021°27'5 9.5
2017-Aug-15 05:00N 63°38' E 021°18'5 9.5
2017-Aug-15 04:30N 63°35' E 021°09'5 9.3
2017-Aug-15 04:00N 63°33' E 020°60'5 9.4
2017-Aug-15 03:30N 63°31' E 020°50'5 9.2
2017-Aug-15 03:00N 63°27' E 020°43'5 9.6
2017-Aug-15 02:30N 63°23' E 020°38'5 9.6
2017-Aug-15 02:00N 63°19' E 020°34'510.4
2017-Aug-15 01:30N 63°14' E 020°31'5 9.5
2017-Aug-15 01:00N 63°09' E 020°32'510.7
2017-Aug-15 00:31N 63°04' E 020°33'4 9.0
2017-Aug-15 00:00N 62°59' E 020°35'5 9.8
2017-Aug-14 23:30N 62°55' E 020°36'5 9.5
2017-Aug-14 23:00N 62°50' E 020°37'5 9.2
2017-Aug-14 22:30N 62°45' E 020°39'5 9.2
2017-Aug-14 22:00N 62°41' E 020°41'510.0
2017-Aug-14 21:31N 62°36' E 020°43'5 9.3
2017-Aug-14 21:01N 62°31' E 020°45'4 8.9
2017-Aug-14 20:30N 62°27' E 020°47'510.5
2017-Aug-14 20:00N 62°22' E 020°49'4 8.7
2017-Aug-14 19:31N 62°18' E 020°51'4 8.6
2017-Aug-14 19:00N 62°13' E 020°53'5 9.3
2017-Aug-14 18:30N 62°09' E 020°55'5 9.3
2017-Aug-14 18:00N 62°04' E 020°56'5 9.4
2017-Aug-14 17:30N 61°59' E 020°58'5 9.3
2017-Aug-14 17:00N 61°55' E 020°59'5 9.3
2017-Aug-14 16:30N 61°50' E 021°00'5 9.4
2017-Aug-14 16:00N 61°46' E 021°02'5 9.3
2017-Aug-14 15:30N 61°41' E 021°03'5 9.3
2017-Aug-14 15:00N 61°36' E 021°04'5 9.2
2017-Aug-14 14:30N 61°32' E 021°06'5 9.1
2017-Aug-14 14:00N 61°28' E 021°09'4 8.8
2017-Aug-14 13:30N 61°23' E 021°11'4 8.7
2017-Aug-14 13:00N 61°19' E 021°16'4 8.5
2017-Aug-14 12:30N 61°16' E 021°22'4 7.7
2017-Aug-14 12:00N 61°15' E 021°29'0 0.0
2017-Aug-14 11:28N 61°15' E 021°29'0 0.0
2017-Aug-14 10:58N 61°15' E 021°29'0 0.0
2017-Aug-14 10:28N 61°15' E 021°29'0 0.0
2017-Aug-14 09:58N 61°15' E 021°29'0 0.0
2017-Aug-14 09:28N 61°15' E 021°29'0 0.0
2017-Aug-14 08:58N 61°15' E 021°29'0 0.0
2017-Aug-14 08:28N 61°15' E 021°29'0 0.0
2017-Aug-14 07:55N 61°15' E 021°29'0 0.0
2017-Aug-14 07:28N 61°15' E 021°29'0 0.0
2017-Aug-14 06:58N 61°15' E 021°29'0 0.0
2017-Aug-14 06:28N 61°15' E 021°29'0 0.0
2017-Aug-14 05:58N 61°15' E 021°29'0 0.0
2017-Aug-14 05:28N 61°15' E 021°29'0 0.9
2017-Aug-14 05:00N 61°15' E 021°29'4 7.2
2017-Aug-14 04:30N 61°17' E 021°22'4 7.6
2017-Aug-14 04:00N 61°15' E 021°14'4 8.7
2017-Aug-14 03:30N 61°12' E 021°07'4 8.9
2017-Aug-14 03:00N 61°10' E 021°00'4 8.8
2017-Aug-14 02:30N 61°07' E 020°53'  
Track history (hours):
 
Tides and Currents Weather Stations Pressure Air Temp Water Temp Dewpoint Dewpoint Depression Visibility Wind Speed Wind Dir Waves Ship Positions

Nathalie

Last reported at 2017-Aug-24 02:25 UTC. Time now 2017-Aug-24 02:53 UTC.
Position N 53°38' W 000°12'.

Length 64 m; draft 2.2 m.

Type: Cargo ship. MMSI: 230987660.

Date/timePositionNaut miles runAvg speedWind from/ knotsBaromVisibWave heightAir tempDewpointWater temp
2017-Aug-24 02:25N 53°38' W 000°12'0 0.0
2017-Aug-24 01:58N 53°38' W 000°12'0 0.0
2017-Aug-24 01:28N 53°38' W 000°12'0 0.0
2017-Aug-24 00:52N 53°38' W 000°12'0 0.0
2017-Aug-24 00:28N 53°38' W 000°12'0 0.0
2017-Aug-23 23:46N 53°38' W 000°12'0 0.0
2017-Aug-23 23:22N 53°38' W 000°12'0 0.0
2017-Aug-23 22:58N 53°38' W 000°12'0 0.0
2017-Aug-23 22:25N 53°38' W 000°12'0 0.0
2017-Aug-23 21:55N 53°38' W 000°12'0 0.0
2017-Aug-23 21:28N 53°38' W 000°12'0 0.7
2017-Aug-23 21:01N 53°38' W 000°11'0 0.7
2017-Aug-23 20:31N 53°38' W 000°11'1 1.7
2017-Aug-23 20:00N 53°38' W 000°09'4 8.8
2017-Aug-23 19:30N 53°36' W 000°02'510.0
2017-Aug-23 18:59N 53°34' E 000°06'49 7.6
2017-Aug-23 12:34N 53°02' E 001°08'110.8
2017-Aug-23 12:31N 53°02' E 001°09'510.4
2017-Aug-23 12:00N 52°60' E 001°16'510.1
2017-Aug-23 11:30N 52°58' E 001°24'5 9.7
2017-Aug-23 11:00N 52°55' E 001°31'4 8.9
2017-Aug-23 10:30N 52°53' E 001°37'4 8.0
2017-Aug-23 10:00N 52°50' E 001°42'4 7.1
2017-Aug-23 09:30N 52°48' E 001°47'3 6.6
2017-Aug-23 09:00N 52°46' E 001°51'30 7.8
2017-Aug-23 05:10N 52°25' E 002°26'2 9.9
2017-Aug-23 05:00N 52°24' E 002°27'5 9.9
2017-Aug-23 04:30N 52°20' E 002°33'610.0
2017-Aug-23 03:53N 52°16' E 002°40'27 9.8
2017-Aug-23 01:09N 51°54' E 003°05'3 9.4
2017-Aug-23 00:50N 51°51' E 003°08'3 9.1
2017-Aug-23 00:29N 51°49' E 003°11'4 8.9
2017-Aug-23 00:00N 51°45' E 003°13'4 8.6
2017-Aug-22 23:31N 51°42' E 003°18'4 7.8
2017-Aug-22 23:00N 51°38' E 003°21'4 8.4
2017-Aug-22 22:29N 51°34' E 003°24'4 7.7
2017-Aug-22 22:01N 51°31' E 003°26'4 7.3
2017-Aug-22 21:30N 51°28' E 003°31'3 7.0
2017-Aug-22 21:01N 51°26' E 003°35'5 9.3
2017-Aug-22 20:30N 51°25' E 003°42'510.3
2017-Aug-22 20:00N 51°21' E 003°47'510.7
2017-Aug-22 19:30N 51°23' E 003°56'5 9.5
2017-Aug-22 19:00N 51°26' E 004°01'510.1
2017-Aug-22 18:31N 51°22' E 004°07'4 7.9
2017-Aug-22 17:59N 51°22' E 004°13'5 9.5
2017-Aug-22 17:30N 51°18' E 004°17'2 4.6
2017-Aug-22 17:00N 51°17' E 004°20'0 0.3
2017-Aug-22 16:28N 51°17' E 004°20'2 3.3
2017-Aug-22 15:59N 51°16' E 004°22'0 0.0
2017-Aug-22 15:29N 51°16' E 004°22'0 0.0
2017-Aug-22 14:59N 51°16' E 004°22'0 0.0
2017-Aug-22 14:29N 51°16' E 004°22'0 0.0
2017-Aug-22 13:59N 51°16' E 004°22'0 0.0
2017-Aug-22 13:29N 51°16' E 004°22'0 0.0
2017-Aug-22 12:59N 51°16' E 004°22'0 0.0
2017-Aug-22 12:29N 51°16' E 004°22'0 0.0
2017-Aug-22 11:59N 51°16' E 004°22'0 0.0
2017-Aug-22 11:29N 51°16' E 004°22'0 0.0
2017-Aug-22 10:59N 51°16' E 004°22'0 0.0
2017-Aug-22 10:29N 51°16' E 004°22'0 0.0
2017-Aug-22 09:59N 51°16' E 004°22'0 0.0
2017-Aug-22 09:29N 51°16' E 004°22'0 0.0
2017-Aug-22 08:59N 51°16' E 004°22'0 0.0
2017-Aug-22 08:29N 51°16' E 004°22'0 0.0
2017-Aug-22 07:59N 51°16' E 004°22'0 0.0
2017-Aug-22 07:29N 51°16' E 004°22'0 0.0
2017-Aug-22 06:59N 51°16' E 004°22'0 0.0
2017-Aug-22 06:29N 51°16' E 004°22'0 0.0
2017-Aug-22 05:59N 51°16' E 004°22'0 0.0
2017-Aug-22 05:29N 51°16' E 004°22'0 0.0
2017-Aug-22 04:59N 51°16' E 004°22'0 0.0
2017-Aug-22 04:29N 51°16' E 004°22'0 0.0
2017-Aug-22 03:59N 51°16' E 004°22'0 0.0
2017-Aug-22 03:29N 51°16' E 004°22'0 0.0
2017-Aug-22 02:59N 51°16' E 004°22'0 0.0
2017-Aug-22 02:29N 51°16' E 004°22'0 0.0
2017-Aug-22 01:59N 51°16' E 004°22'0 0.0
2017-Aug-22 01:29N 51°16' E 004°22'0 0.0
2017-Aug-22 00:59N 51°16' E 004°22'0 0.0
2017-Aug-22 00:28N 51°16' E 004°22'0 0.0
2017-Aug-21 23:58N 51°16' E 004°22'0 0.0
2017-Aug-21 23:28N 51°16' E 004°22'0 0.0
2017-Aug-21 22:58N 51°16' E 004°22'0 0.0
2017-Aug-21 22:28N 51°16' E 004°22'0 0.0
2017-Aug-21 21:58N 51°16' E 004°22'0 0.0
2017-Aug-21 21:28N 51°16' E 004°22'0 0.0
2017-Aug-21 20:58N 51°16' E 004°22'0 0.0
2017-Aug-21 20:28N 51°16' E 004°22'0 0.0
2017-Aug-21 19:58N 51°16' E 004°22'0 0.0
2017-Aug-21 19:28N 51°16' E 004°22'0 0.0
2017-Aug-21 18:58N 51°16' E 004°22'0 0.8
2017-Aug-21 18:30N 51°16' E 004°22'2 3.1
2017-Aug-21 18:00N 51°17' E 004°20'0 0.7
2017-Aug-21 17:30N 51°17' E 004°20'3 5.7
2017-Aug-21 17:00N 51°19' E 004°16'3 6.4
2017-Aug-21 16:30N 51°22' E 004°13'3 5.3
2017-Aug-21 16:00N 51°23' E 004°10'4 7.1
2017-Aug-21 15:30N 51°22' E 004°05'3 6.9
2017-Aug-21 15:00N 51°25' E 004°02'3 5.3
2017-Aug-21 14:30N 51°24' E 003°58'4 8.6
2017-Aug-21 14:00N 51°21' E 003°53'4 8.7
2017-Aug-21 13:30N 51°21' E 003°46'4 8.8
2017-Aug-21 13:00N 51°25' E 003°42'5 9.1
2017-Aug-21 12:30N 51°26' E 003°35'510.1
2017-Aug-21 12:00N 51°29' E 003°29'5 9.1
2017-Aug-21 11:30N 51°33' E 003°25'6 9.8
2017-Aug-21 10:55N 51°38' E 003°20'237 7.0
2017-Aug-20 00:59N 53°58' E 008°37'510.8
2017-Aug-20 00:30N 53°54' E 008°42'5 9.5
2017-Aug-20 00:00N 53°51' E 008°49'4 8.7
2017-Aug-19 23:31N 53°51' E 008°56'4 7.6
2017-Aug-19 23:00N 53°52' E 009°02'4 7.5
2017-Aug-19 22:31N 53°53' E 009°08'1 2.0
2017-Aug-19 22:00N 53°54' E 009°09'4 7.1
2017-Aug-19 21:31N 53°56' E 009°13'4 8.3
2017-Aug-19 21:00N 53°60' E 009°17'4 8.1
2017-Aug-19 20:30N 54°04' E 009°19'50 6.0
2017-Aug-19 12:13N 54°33' E 010°28'2 8.6
2017-Aug-19 11:59N 54°33' E 010°31'4 8.5
2017-Aug-19 11:30N 54°34' E 010°38'4 8.6
2017-Aug-19 11:00N 54°35' E 010°45'4 8.5
2017-Aug-19 10:30N 54°35' E 010°53'4 8.2
2017-Aug-19 10:00N 54°36' E 010°60'4 8.3
2017-Aug-19 09:30N 54°36' E 011°07'4 8.2
2017-Aug-19 09:00N 54°36' E 011°14'4 7.9
2017-Aug-19 08:31N 54°34' E 011°20'4 8.2
2017-Aug-19 08:00N 54°32' E 011°26'4 8.0
2017-Aug-19 07:30N 54°31' E 011°33'4 7.7
2017-Aug-19 07:00N 54°30' E 011°39'4 7.4
2017-Aug-19 06:29N 54°30' E 011°46'4 7.4
2017-Aug-19 05:58N 54°30' E 011°52'4 7.4
2017-Aug-19 05:27N 54°30' E 011°59'3 7.0
2017-Aug-19 05:00N 54°30' E 012°04'4 7.1
2017-Aug-19 04:30N 54°32' E 012°09'4 7.9
2017-Aug-19 04:00N 54°36' E 012°13'4 8.2
2017-Aug-19 03:30N 54°38' E 012°18'4 8.4
2017-Aug-19 03:00N 54°41' E 012°24'42 8.6
2017-Aug-18 22:05N 54°59' E 013°30'1 9.0
2017-Aug-18 21:58N 54°59' E 013°32'4 8.7
2017-Aug-18 21:29N 54°60' E 013°39'4 9.0
2017-Aug-18 21:00N 55°01' E 013°46'5 9.2
2017-Aug-18 20:30N 55°03' E 013°54'5 9.1
2017-Aug-18 20:00N 55°04' E 014°01'4 8.8
2017-Aug-18 19:30N 55°07' E 014°07'5 9.0
2017-Aug-18 19:00N 55°11' E 014°12'5 9.1
2017-Aug-18 18:30N 55°14' E 014°17'5 9.0
2017-Aug-18 18:00N 55°18' E 014°22'5 9.0
2017-Aug-18 17:30N 55°21' E 014°27'5 9.1
2017-Aug-18 16:58N 55°25' E 014°32'4 9.2
2017-Aug-18 16:30N 55°28' E 014°38'4 9.0
2017-Aug-18 16:00N 55°30' E 014°45'4 8.8
2017-Aug-18 15:30N 55°33' E 014°51'4 8.9
2017-Aug-18 15:00N 55°36' E 014°57'4 9.0
2017-Aug-18 14:30N 55°38' E 015°04'9 8.9
2017-Aug-18 13:30N 55°43' E 015°16'4 8.6
2017-Aug-18 13:00N 55°46' E 015°23'4 8.5
2017-Aug-18 12:30N 55°48' E 015°29'4 8.5
2017-Aug-18 12:00N 55°51' E 015°35'4 8.6
2017-Aug-18 11:30N 55°54' E 015°41'4 8.5
2017-Aug-18 11:00N 55°56' E 015°47'4 8.6
2017-Aug-18 10:30N 55°60' E 015°51'4 8.8
2017-Aug-18 10:00N 56°03' E 015°55'4 8.9
2017-Aug-18 09:30N 56°07' E 016°00'4 8.8
2017-Aug-18 09:00N 56°11' E 016°04'4 8.8
2017-Aug-18 08:30N 56°15' E 016°07'5 9.0
2017-Aug-18 08:00N 56°19' E 016°10'5 9.0
2017-Aug-18 07:30N 56°23' E 016°13'5 9.1
2017-Aug-18 07:00N 56°28' E 016°16'5 8.9
2017-Aug-18 06:30N 56°32' E 016°18'5 9.0
2017-Aug-18 06:00N 56°36' E 016°21'33 8.7
2017-Aug-18 02:13N 57°07' E 016°44'3 8.7
2017-Aug-18 01:53N 57°09' E 016°46'3 8.8
2017-Aug-18 01:29N 57°13' E 016°48'19 9.0
2017-Aug-17 23:22N 57°31' E 016°58'4 9.0
2017-Aug-17 22:57N 57°34' E 017°00'7 8.9
2017-Aug-17 22:11N 57°41' E 017°04'2 8.8
2017-Aug-17 22:00N 57°42' E 017°05'4 8.9
2017-Aug-17 21:30N 57°47' E 017°08'4 9.0
2017-Aug-17 21:00N 57°51' E 017°11'5 9.0
2017-Aug-17 20:25N 57°56' E 017°15'4 9.5
2017-Aug-17 19:57N 57°60' E 017°19'4 8.6
2017-Aug-17 19:30N 58°03' E 017°21'5 9.7
2017-Aug-17 19:00N 58°08' E 017°25'4 8.7
2017-Aug-17 18:30N 58°12' E 017°28'5 9.9
2017-Aug-17 18:00N 58°16' E 017°32'4 8.3
2017-Aug-17 17:30N 58°20' E 017°35'5 9.1
2017-Aug-17 17:00N 58°24' E 017°38'5 9.2
2017-Aug-17 16:30N 58°28' E 017°42'5 9.1
2017-Aug-17 16:00N 58°33' E 017°45'4 8.9
2017-Aug-17 15:30N 58°37' E 017°48'4 8.9
2017-Aug-17 15:01N 58°41' E 017°51'5 9.1
2017-Aug-17 14:29N 58°45' E 017°55'31 8.6
2017-Aug-17 10:54N 59°09' E 018°32'3 7.5
2017-Aug-17 10:29N 59°12' E 018°35'8 9.3
2017-Aug-17 09:37N 59°18' E 018°45'110.2
2017-Aug-17 09:29N 59°19' E 018°47'4 9.0
2017-Aug-17 09:00N 59°23' E 018°52'5 9.2
2017-Aug-17 08:31N 59°26' E 018°58'5 9.2
2017-Aug-17 08:00N 59°30' E 019°04'5 9.1
2017-Aug-17 07:30N 59°34' E 019°08'4 8.9
2017-Aug-17 07:00N 59°38' E 019°09'4 9.0
2017-Aug-17 06:30N 59°43' E 019°10'3 6.9
2017-Aug-17 06:01N 59°46' E 019°06'4 8.7
2017-Aug-17 05:30N 59°50' E 019°05'4 9.0
2017-Aug-17 05:01N 59°54' E 019°04'5 9.3
2017-Aug-17 04:31N 59°59' E 019°03'5 9.3
2017-Aug-17 04:01N 60°04' E 019°02'5 9.2
2017-Aug-17 03:31N 60°08' E 019°00'5 9.2
2017-Aug-17 03:01N 60°13' E 018°60'5 9.2
2017-Aug-17 02:31N 60°17' E 018°60'5 9.1
2017-Aug-17 02:00N 60°22' E 018°59'5 9.2
2017-Aug-17 01:30N 60°26' E 018°59'5 9.1
2017-Aug-17 01:01N 60°31' E 018°59'5 9.0
2017-Aug-17 00:31N 60°35' E 019°02'5 9.1
2017-Aug-17 00:00N 60°40' E 019°03'4 9.0
2017-Aug-16 23:31N 60°44' E 019°06'4 9.0
2017-Aug-16 23:01N 60°49' E 019°08'4 8.9
2017-Aug-16 22:31N 60°53' E 019°10'5 8.9
2017-Aug-16 22:00N 60°57' E 019°12'4 8.9
2017-Aug-16 21:31N 61°02' E 019°14'57 8.5
2017-Aug-16 14:45N 61°57' E 019°43'2 8.1
2017-Aug-16 14:30N 61°59' E 019°44'4 8.6
2017-Aug-16 14:00N 62°03' E 019°46'4 7.7
2017-Aug-16 13:30N 62°07' E 019°48'4 7.4
2017-Aug-16 13:01N 62°11' E 019°50'4 7.6
2017-Aug-16 12:30N 62°14' E 019°52'4 7.8
2017-Aug-16 12:00N 62°18' E 019°54'4 7.5
2017-Aug-16 11:30N 62°22' E 019°57'4 7.5
2017-Aug-16 11:00N 62°25' E 019°58'4 7.2
2017-Aug-16 10:30N 62°29' E 020°00'4 6.8
2017-Aug-16 09:59N 62°32' E 020°02'3 6.9
2017-Aug-16 09:30N 62°36' E 020°03'4 7.7
2017-Aug-16 09:00N 62°39' E 020°06'3 7.0
2017-Aug-16 08:30N 62°43' E 020°08'4 7.1
2017-Aug-16 08:00N 62°46' E 020°10'4 8.1
2017-Aug-16 07:30N 62°50' E 020°13'4 7.3
2017-Aug-16 06:57N 62°54' E 020°15'3 7.4
2017-Aug-16 06:31N 62°57' E 020°16'4 7.4
2017-Aug-16 06:00N 63°01' E 020°18'4 8.4
2017-Aug-16 05:30N 63°05' E 020°20'3 6.8
2017-Aug-16 05:00N 63°08' E 020°22'4 7.6
2017-Aug-16 04:31N 63°12' E 020°24'4 8.0
2017-Aug-16 04:00N 63°16' E 020°25'4 7.9
2017-Aug-16 03:31N 63°20' E 020°27'4 8.1
2017-Aug-16 03:00N 63°23' E 020°31'4 8.7
2017-Aug-16 02:30N 63°27' E 020°37'4 8.3
2017-Aug-16 02:01N 63°31' E 020°41'4 7.9
2017-Aug-16 01:30N 63°33' E 020°48'4 7.8
2017-Aug-16 01:01N 63°34' E 020°56'5 9.4
2017-Aug-16 00:30N 63°36' E 021°06'4 7.9
2017-Aug-16 00:00N 63°37' E 021°14'4 8.7
2017-Aug-15 23:30N 63°39' E 021°23'4 8.8
2017-Aug-15 23:00N 63°41' E 021°32'5 9.4
2017-Aug-15 22:30N 63°43' E 021°41'4 8.1
2017-Aug-15 22:00N 63°45' E 021°49'510.5
2017-Aug-15 21:30N 63°47' E 022°00'4 8.2
2017-Aug-15 21:00N 63°49' E 022°08'4 8.1
2017-Aug-15 20:31N 63°51' E 022°16'4 8.7
2017-Aug-15 20:01N 63°53' E 022°25'4 8.6
2017-Aug-15 19:30N 63°55' E 022°34'4 8.5
2017-Aug-15 19:01N 63°57' E 022°43'4 7.1
2017-Aug-15 18:30N 63°57' E 022°51'4 8.7
2017-Aug-15 18:00N 63°55' E 022°58'3 6.7
2017-Aug-15 17:30N 63°52' E 023°02'0 0.0
2017-Aug-15 17:00N 63°52' E 023°02'0 0.0
2017-Aug-15 16:30N 63°52' E 023°02'0 0.0
2017-Aug-15 16:00N 63°52' E 023°02'0 0.0
2017-Aug-15 15:30N 63°52' E 023°02'0 0.0
2017-Aug-15 15:00N 63°52' E 023°02'0 0.0
2017-Aug-15 14:24N 63°52' E 023°02'0 0.0
2017-Aug-15 14:00N 63°52' E 023°02'0 0.0
2017-Aug-15 13:30N 63°52' E 023°02'0 0.0
2017-Aug-15 13:00N 63°52' E 023°02'0 0.0
2017-Aug-15 12:30N 63°52' E 023°02'0 0.0
2017-Aug-15 12:00N 63°52' E 023°02'0 0.0
2017-Aug-15 11:30N 63°52' E 023°02'0 0.0
2017-Aug-15 11:00N 63°52' E 023°02'3 5.7
2017-Aug-15 10:30N 63°54' E 022°59'5 9.0
2017-Aug-15 10:00N 63°57' E 022°51'4 8.3
2017-Aug-15 09:30N 63°58' E 022°42'5 9.7
2017-Aug-15 09:00N 63°56' E 022°32'5 9.6
2017-Aug-15 08:30N 63°54' E 022°22'5 9.3
2017-Aug-15 08:00N 63°51' E 022°13'5 9.3
2017-Aug-15 07:30N 63°49' E 022°04'5 9.3
2017-Aug-15 07:00N 63°47' E 021°55'5 9.3
2017-Aug-15 06:30N 63°44' E 021°46'5 9.4
2017-Aug-15 06:00N 63°42' E 021°37'5 9.4
2017-Aug-15 05:30N 63°40' E 021°27'5 9.5
2017-Aug-15 05:00N 63°38' E 021°18'5 9.5
2017-Aug-15 04:30N 63°35' E 021°09'5 9.3
2017-Aug-15 04:00N 63°33' E 020°60'5 9.4
2017-Aug-15 03:30N 63°31' E 020°50'5 9.2
2017-Aug-15 03:00N 63°27' E 020°43'5 9.6
2017-Aug-15 02:30N 63°23' E 020°38'5 9.6
2017-Aug-15 02:00N 63°19' E 020°34'510.4
2017-Aug-15 01:30N 63°14' E 020°31'5 9.5
2017-Aug-15 01:00N 63°09' E 020°32'510.7
2017-Aug-15 00:31N 63°04' E 020°33'4 9.0
2017-Aug-15 00:00N 62°59' E 020°35'5 9.8
2017-Aug-14 23:30N 62°55' E 020°36'5 9.5
2017-Aug-14 23:00N 62°50' E 020°37'5 9.2
2017-Aug-14 22:30N 62°45' E 020°39'5 9.2
2017-Aug-14 22:00N 62°41' E 020°41'510.0
2017-Aug-14 21:31N 62°36' E 020°43'5 9.3
2017-Aug-14 21:01N 62°31' E 020°45'4 8.9
2017-Aug-14 20:30N 62°27' E 020°47'510.5
2017-Aug-14 20:00N 62°22' E 020°49'4 8.7
2017-Aug-14 19:31N 62°18' E 020°51'4 8.6
2017-Aug-14 19:00N 62°13' E 020°53'5 9.3
2017-Aug-14 18:30N 62°09' E 020°55'5 9.3
2017-Aug-14 18:00N 62°04' E 020°56'5 9.4
2017-Aug-14 17:30N 61°59' E 020°58'5 9.3
2017-Aug-14 17:00N 61°55' E 020°59'5 9.3
2017-Aug-14 16:30N 61°50' E 021°00'5 9.4
2017-Aug-14 16:00N 61°46' E 021°02'5 9.3
2017-Aug-14 15:30N 61°41' E 021°03'5 9.3
2017-Aug-14 15:00N 61°36' E 021°04'5 9.2
2017-Aug-14 14:30N 61°32' E 021°06'5 9.1
2017-Aug-14 14:00N 61°28' E 021°09'4 8.8
2017-Aug-14 13:30N 61°23' E 021°11'4 8.7
2017-Aug-14 13:00N 61°19' E 021°16'4 8.5
2017-Aug-14 12:30N 61°16' E 021°22'4 7.7
2017-Aug-14 12:00N 61°15' E 021°29'0 0.0
2017-Aug-14 11:28N 61°15' E 021°29'0 0.0
2017-Aug-14 10:58N 61°15' E 021°29'0 0.0
2017-Aug-14 10:28N 61°15' E 021°29'0 0.0
2017-Aug-14 09:58N 61°15' E 021°29'0 0.0
2017-Aug-14 09:28N 61°15' E 021°29'0 0.0
2017-Aug-14 08:58N 61°15' E 021°29'0 0.0
2017-Aug-14 08:28N 61°15' E 021°29'0 0.0
2017-Aug-14 07:55N 61°15' E 021°29'0 0.0
2017-Aug-14 07:28N 61°15' E 021°29'0 0.0
2017-Aug-14 06:58N 61°15' E 021°29'0 0.0
2017-Aug-14 06:28N 61°15' E 021°29'0 0.0
2017-Aug-14 05:58N 61°15' E 021°29'0 0.0
2017-Aug-14 05:28N 61°15' E 021°29'0 0.9
2017-Aug-14 05:00N 61°15' E 021°29'4 7.2
2017-Aug-14 04:30N 61°17' E 021°22'4 7.6
2017-Aug-14 04:00N 61°15' E 021°14'4 8.7
2017-Aug-14 03:30N 61°12' E 021°07'4 8.9
2017-Aug-14 03:00N 61°10' E 021°00'4 8.8
2017-Aug-14 02:30N 61°07' E 020°53'  

Dump ship's entire track history